createdAt,value
2023-03-15T00:01:18.983Z,0.90
2023-03-15T00:03:46.792Z,1.00
2023-03-15T00:06:14.822Z,0.90
2023-03-15T00:08:42.257Z,1.00
2023-03-15T00:11:09.660Z,1.00
2023-03-15T00:13:36.974Z,0.90
2023-03-15T00:16:04.523Z,0.90
2023-03-15T00:18:32.251Z,1.13
2023-03-15T00:20:59.751Z,1.00
2023-03-15T00:23:27.341Z,0.90
2023-03-15T00:25:54.860Z,1.13
2023-03-15T00:28:22.692Z,0.90
2023-03-15T00:31:03.186Z,0.90
2023-03-15T00:33:35.012Z,1.00
2023-03-15T00:36:06.755Z,1.20
2023-03-15T00:38:34.513Z,1.00
2023-03-15T00:41:12.637Z,1.00
2023-03-15T00:43:41.391Z,0.90
2023-03-15T00:46:09.245Z,1.03
2023-03-15T00:48:36.921Z,1.13
2023-03-15T00:51:09.618Z,0.87
2023-03-15T00:53:38.872Z,1.07
2023-03-15T00:56:07.423Z,1.10
2023-03-15T00:58:35.502Z,1.00
2023-03-15T01:01:06.749Z,0.80
2023-03-15T01:03:36.738Z,0.90
2023-03-15T01:06:08.715Z,0.97
2023-03-15T01:08:36.345Z,1.00
2023-03-15T01:11:05.141Z,1.10
2023-03-15T01:13:32.657Z,0.80
2023-03-15T01:16:00.064Z,0.90
2023-03-15T01:18:27.719Z,0.87
2023-03-15T01:20:55.004Z,1.00
2023-03-15T01:23:22.378Z,1.00
2023-03-15T01:25:49.938Z,0.70
2023-03-15T01:28:17.373Z,1.00
2023-03-15T01:30:51.868Z,0.90
2023-03-15T01:33:19.930Z,1.07
2023-03-15T01:35:48.269Z,1.10
2023-03-15T01:38:15.934Z,0.90
2023-03-15T01:40:45.600Z,0.90
2023-03-15T01:43:16.397Z,1.10
2023-03-15T01:45:53.349Z,0.97
2023-03-15T01:48:23.797Z,1.00
2023-03-15T01:50:51.444Z,0.97
2023-03-15T01:53:18.774Z,0.90
2023-03-15T01:55:46.304Z,0.90
2023-03-15T01:58:16.417Z,0.90
2023-03-15T02:00:44.864Z,0.90
2023-03-15T02:03:21.301Z,0.90
2023-03-15T02:05:54.937Z,1.00
2023-03-15T02:08:34.252Z,1.00
2023-03-15T02:11:03.475Z,1.00
2023-03-15T02:13:31.703Z,1.20
2023-03-15T02:16:06.777Z,0.90
2023-03-15T02:18:40.597Z,0.90
2023-03-15T02:21:27.110Z,1.20
2023-03-15T02:24:15.148Z,1.00
2023-03-15T02:26:45.178Z,0.80
2023-03-15T02:29:12.693Z,0.90
2023-03-15T02:31:41.400Z,0.87
2023-03-15T02:34:09.425Z,0.90
2023-03-15T02:36:37.565Z,0.80
2023-03-15T02:39:16.717Z,0.90
2023-03-15T02:41:57.498Z,0.90
2023-03-15T02:44:28.368Z,1.00
2023-03-15T02:46:58.017Z,1.00
2023-03-15T02:49:27.739Z,0.90
2023-03-15T02:51:55.222Z,1.30
2023-03-15T02:54:22.627Z,1.03
2023-03-15T02:56:50.017Z,0.87
2023-03-15T02:59:17.431Z,1.00
2023-03-15T03:01:46.461Z,1.17
2023-03-15T03:04:13.973Z,0.90
2023-03-15T03:06:43.829Z,1.20
2023-03-15T03:09:13.136Z,1.00
2023-03-15T03:11:42.508Z,1.10
2023-03-15T03:14:10.078Z,1.00
2023-03-15T03:16:37.374Z,1.20
2023-03-15T03:19:04.972Z,1.30
2023-03-15T03:21:33.187Z,1.20
2023-03-15T03:24:00.825Z,1.10
2023-03-15T03:26:28.288Z,1.00
2023-03-15T03:28:56.445Z,1.07
2023-03-15T03:31:28.668Z,0.80
2023-03-15T03:33:57.230Z,0.90
2023-03-15T03:36:25.297Z,1.30
2023-03-15T03:38:57.424Z,0.90
2023-03-15T03:41:25.104Z,1.20
2023-03-15T03:43:53.167Z,0.97
2023-03-15T03:46:21.740Z,0.90
2023-03-15T03:48:52.767Z,1.07
2023-03-15T03:51:20.429Z,1.00
2023-03-15T03:53:48.600Z,1.00
2023-03-15T03:56:16.149Z,1.10
2023-03-15T03:58:44.780Z,0.80
2023-03-15T04:01:18.954Z,1.13
2023-03-15T04:03:53.833Z,1.00
2023-03-15T04:06:23.238Z,0.97
2023-03-15T04:08:50.593Z,1.10
2023-03-15T04:11:36.363Z,0.80
2023-03-15T04:14:07.213Z,1.10
2023-03-15T04:16:35.198Z,1.13
2023-03-15T04:19:06.058Z,1.10
2023-03-15T04:21:34.918Z,0.90
2023-03-15T04:24:15.863Z,0.80
2023-03-15T04:26:58.984Z,1.00
2023-03-15T04:29:39.729Z,1.33
2023-03-15T04:32:27.425Z,1.20
2023-03-15T04:35:15.955Z,1.00
2023-03-15T04:38:01.938Z,0.90
2023-03-15T04:41:01.769Z,1.37
2023-03-15T04:43:41.780Z,1.17
2023-03-15T04:46:27.991Z,0.90
2023-03-15T04:49:07.713Z,0.90
2023-03-15T04:51:56.733Z,0.90
2023-03-15T04:54:59.699Z,0.97
2023-03-15T04:57:29.481Z,1.00
2023-03-15T05:00:19.758Z,1.43
2023-03-15T05:03:05.969Z,0.83
2023-03-15T05:05:53.550Z,1.33
2023-03-15T05:08:59.559Z,0.90
2023-03-15T05:11:53.132Z,1.00
2023-03-15T05:14:35.416Z,0.90
2023-03-15T05:17:06.947Z,1.00
2023-03-15T05:20:01.895Z,1.10
2023-03-15T05:23:02.198Z,1.00
2023-03-15T05:25:43.291Z,1.00
2023-03-15T05:28:26.825Z,0.90
2023-03-15T05:31:10.087Z,1.10
2023-03-15T05:33:59.392Z,1.13
2023-03-15T05:36:45.660Z,1.10
2023-03-15T05:39:48.270Z,1.17
2023-03-15T05:42:35.068Z,1.37
2023-03-15T05:45:21.183Z,1.60
2023-03-15T05:48:07.570Z,0.93
2023-03-15T05:50:41.279Z,1.30
2023-03-15T05:53:19.350Z,1.00
2023-03-15T05:56:07.224Z,1.10
2023-03-15T05:58:57.593Z,1.03
2023-03-15T06:01:43.950Z,1.00
2023-03-15T06:04:28.857Z,1.07
2023-03-15T06:06:58.064Z,1.20
2023-03-15T06:09:27.956Z,1.10
2023-03-15T06:11:56.597Z,1.17
2023-03-15T06:14:24.091Z,0.97
2023-03-15T06:16:53.899Z,1.03
2023-03-15T06:19:21.808Z,1.10
2023-03-15T06:21:50.208Z,1.30
2023-03-15T06:24:30.607Z,1.00
2023-03-15T06:26:58.032Z,1.00
2023-03-15T06:29:25.984Z,1.00
2023-03-15T06:31:55.589Z,1.10
2023-03-15T06:34:24.975Z,1.20
2023-03-15T06:36:52.627Z,1.10
2023-03-15T06:39:20.391Z,1.33
2023-03-15T06:41:47.797Z,1.10
2023-03-15T06:44:20.477Z,1.30
2023-03-15T06:46:52.501Z,1.03
2023-03-15T06:49:19.898Z,1.10
2023-03-15T06:51:47.440Z,1.03
2023-03-15T06:54:14.963Z,1.43
2023-03-15T06:56:42.514Z,1.20
2023-03-15T06:59:10.471Z,1.20
2023-03-15T07:01:37.869Z,1.30
2023-03-15T07:04:07.897Z,0.90
2023-03-15T07:06:36.043Z,1.20
2023-03-15T07:09:05.316Z,1.10
2023-03-15T07:11:32.801Z,1.37
2023-03-15T07:14:02.441Z,1.13
2023-03-15T07:16:29.789Z,0.97
2023-03-15T07:18:59.348Z,1.10
2023-03-15T07:21:27.461Z,0.90
2023-03-15T07:23:55.222Z,1.03
2023-03-15T07:26:22.790Z,1.20
2023-03-15T07:28:50.664Z,1.10
2023-03-15T07:31:18.224Z,1.10
2023-03-15T07:33:45.864Z,1.10
2023-03-15T07:36:13.297Z,1.10
2023-03-15T07:38:43.208Z,1.10
2023-03-15T07:41:10.904Z,1.40
2023-03-15T07:43:41.906Z,1.30
2023-03-15T07:46:17.449Z,1.40
2023-03-15T07:48:44.931Z,1.10
2023-03-15T07:51:12.316Z,1.30
2023-03-15T07:53:39.894Z,1.40
2023-03-15T07:56:10.866Z,1.40
2023-03-15T07:58:39.056Z,1.23
2023-03-15T08:01:08.786Z,1.23
2023-03-15T08:03:38.818Z,1.17
2023-03-15T08:06:07.197Z,1.30
2023-03-15T08:08:35.058Z,1.30
2023-03-15T08:11:02.836Z,1.40
2023-03-15T08:13:30.317Z,1.20
2023-03-15T08:15:57.820Z,1.20
2023-03-15T08:18:25.269Z,1.40
2023-03-15T08:20:53.837Z,1.30
2023-03-15T08:23:22.002Z,1.13
2023-03-15T08:25:50.171Z,1.27
2023-03-15T08:28:17.790Z,1.10
2023-03-15T08:30:45.255Z,1.10
2023-03-15T08:33:12.787Z,1.20
2023-03-15T08:35:41.611Z,1.10
2023-03-15T08:38:09.835Z,1.23
2023-03-15T08:40:39.842Z,1.50
2023-03-15T08:43:07.491Z,1.10
2023-03-15T08:45:51.027Z,1.60
2023-03-15T08:48:22.338Z,1.40
2023-03-15T08:50:49.753Z,1.20
2023-03-15T08:53:17.241Z,1.20
2023-03-15T08:55:44.665Z,1.40
2023-03-15T08:58:14.351Z,1.20
2023-03-15T09:00:41.814Z,1.37
2023-03-15T09:03:09.304Z,1.50
2023-03-15T09:05:36.899Z,1.30
2023-03-15T09:08:07.541Z,1.10
2023-03-15T09:10:36.748Z,1.27
2023-03-15T09:13:04.272Z,1.20
2023-03-15T09:15:31.735Z,1.20
2023-03-15T09:17:59.298Z,1.30
2023-03-15T09:20:28.386Z,1.27
2023-03-15T09:22:56.676Z,1.30
2023-03-15T09:25:24.738Z,1.20
2023-03-15T09:27:52.405Z,1.20
2023-03-15T09:30:20.404Z,1.13
2023-03-15T09:32:48.081Z,1.10
2023-03-15T09:35:16.963Z,1.40
2023-03-15T09:37:44.603Z,1.10
2023-03-15T09:40:18.163Z,1.50
2023-03-15T09:43:00.933Z,1.30
2023-03-15T09:45:28.284Z,1.20
2023-03-15T09:48:05.428Z,1.30
2023-03-15T09:50:35.675Z,1.50
2023-03-15T09:53:26.509Z,1.40
2023-03-15T09:55:54.408Z,1.13
2023-03-15T09:58:23.686Z,1.20
2023-03-15T10:01:05.341Z,1.50
2023-03-15T10:03:50.103Z,1.40
2023-03-15T10:06:19.370Z,1.17
2023-03-15T10:08:47.658Z,1.40
2023-03-15T10:11:24.384Z,1.30
2023-03-15T10:14:01.086Z,1.30
2023-03-15T10:16:41.314Z,1.30
2023-03-15T10:19:18.911Z,1.33
2023-03-15T10:22:02.180Z,1.40
2023-03-15T10:24:41.242Z,1.27
2023-03-15T10:27:18.027Z,1.60
2023-03-15T10:29:45.788Z,1.33
2023-03-15T10:32:20.578Z,1.30
2023-03-15T10:34:50.427Z,1.50
2023-03-15T10:37:19.232Z,1.60
2023-03-15T10:39:48.556Z,1.40
2023-03-15T10:42:25.324Z,1.37
2023-03-15T10:44:52.711Z,1.43
2023-03-15T10:47:24.420Z,1.60
2023-03-15T10:49:59.609Z,1.60
2023-03-15T10:52:38.904Z,1.43
2023-03-15T10:55:17.297Z,1.50
2023-03-15T10:57:59.913Z,1.53
2023-03-15T11:00:27.311Z,1.80
2023-03-15T11:03:08.669Z,1.50
2023-03-15T11:05:42.268Z,1.60
2023-03-15T11:08:14.839Z,1.73
2023-03-15T11:10:44.570Z,1.50
2023-03-15T11:13:13.499Z,1.80
2023-03-15T11:15:49.081Z,1.40
2023-03-15T11:18:33.784Z,1.53
2023-03-15T11:21:02.093Z,1.70
2023-03-15T11:23:31.016Z,1.50
2023-03-15T11:26:01.786Z,1.30
2023-03-15T11:28:32.802Z,1.00
2023-03-15T11:31:01.084Z,1.80
2023-03-15T11:33:44.432Z,1.40
2023-03-15T11:36:18.046Z,1.40
2023-03-15T11:38:48.169Z,1.30
2023-03-15T11:41:20.213Z,1.23
2023-03-15T11:43:47.501Z,1.30
2023-03-15T11:46:26.110Z,1.40
2023-03-15T11:48:56.369Z,1.37
2023-03-15T11:51:23.748Z,1.00
2023-03-15T11:53:51.154Z,1.07
2023-03-15T11:56:37.736Z,1.30
2023-03-15T11:59:05.159Z,1.30
2023-03-15T12:01:34.846Z,1.47
2023-03-15T12:04:21.488Z,1.20
2023-03-15T12:06:48.805Z,1.70
2023-03-15T12:09:37.903Z,1.20
2023-03-15T12:12:24.371Z,1.40
2023-03-15T12:15:05.377Z,1.90
2023-03-15T12:17:37.711Z,1.63
2023-03-15T12:20:14.684Z,1.57
2023-03-15T12:22:44.236Z,1.20
2023-03-15T12:25:33.844Z,1.20
2023-03-15T12:28:09.896Z,1.20
2023-03-15T12:30:48.391Z,1.00
2023-03-15T12:33:17.059Z,1.40
2023-03-15T12:35:44.934Z,1.50
2023-03-15T12:38:16.903Z,1.50
2023-03-15T12:40:50.834Z,1.50
2023-03-15T12:43:35.618Z,1.20
2023-03-15T12:46:03.530Z,1.10
2023-03-15T12:48:31.668Z,1.00
2023-03-15T12:51:04.032Z,1.43
2023-03-15T12:53:31.539Z,1.20
2023-03-15T12:56:15.015Z,1.10
2023-03-15T12:58:43.258Z,1.20
2023-03-15T13:01:16.220Z,1.30
2023-03-15T13:03:44.484Z,1.10
2023-03-15T13:06:12.118Z,1.30
2023-03-15T13:08:52.346Z,1.00
2023-03-15T13:11:26.520Z,1.30
2023-03-15T13:13:54.647Z,1.20
2023-03-15T13:16:35.704Z,1.10
2023-03-15T13:19:05.416Z,1.47
2023-03-15T13:21:38.610Z,1.00
2023-03-15T13:24:12.049Z,1.20
2023-03-15T13:26:39.466Z,1.40
2023-03-15T13:29:15.789Z,1.20
2023-03-15T13:31:43.655Z,1.00
2023-03-15T13:34:12.969Z,1.10
2023-03-15T13:36:45.568Z,1.20
2023-03-15T13:39:27.503Z,1.00
2023-03-15T13:41:58.824Z,1.10
2023-03-15T13:44:30.365Z,1.10
2023-03-15T13:46:58.390Z,1.07
2023-03-15T13:49:30.874Z,1.10
2023-03-15T13:51:58.620Z,1.00
2023-03-15T13:54:35.194Z,0.83
2023-03-15T13:57:12.351Z,1.00
2023-03-15T13:59:46.507Z,1.33
2023-03-15T14:02:17.314Z,0.90
2023-03-15T14:04:46.237Z,1.13
2023-03-15T14:07:22.560Z,1.00
2023-03-15T14:09:49.852Z,0.90
2023-03-15T14:12:23.182Z,1.00
2023-03-15T14:14:54.225Z,0.90
2023-03-15T14:17:26.274Z,1.00
2023-03-15T14:20:06.890Z,1.00
2023-03-15T14:22:36.923Z,0.97
2023-03-15T14:25:05.290Z,1.20
2023-03-15T14:27:33.223Z,1.30
2023-03-15T14:30:02.202Z,1.10
2023-03-15T14:32:34.755Z,1.20
2023-03-15T14:35:06.436Z,1.10
2023-03-15T14:37:41.068Z,1.10
2023-03-15T14:40:30.605Z,1.23
2023-03-15T14:43:00.695Z,1.10
2023-03-15T14:45:31.593Z,1.10
2023-03-15T14:48:01.798Z,1.20
2023-03-15T14:50:32.012Z,1.13
2023-03-15T14:52:59.493Z,1.20
2023-03-15T14:55:34.941Z,1.20
2023-03-15T14:58:10.566Z,1.40
2023-03-15T15:00:42.985Z,1.30
2023-03-15T15:03:29.460Z,1.17
2023-03-15T15:05:57.064Z,1.20
2023-03-15T15:08:28.214Z,1.23
2023-03-15T15:10:57.044Z,1.20
2023-03-15T15:13:29.231Z,1.27
2023-03-15T15:15:57.301Z,1.20
2023-03-15T15:18:26.132Z,1.30
2023-03-15T15:20:55.845Z,1.40
2023-03-15T15:23:25.437Z,1.40
2023-03-15T15:25:54.937Z,1.20
2023-03-15T15:28:34.178Z,1.27
2023-03-15T15:31:03.033Z,1.33
2023-03-15T15:33:34.241Z,1.20
2023-03-15T15:36:02.175Z,1.30
2023-03-15T15:38:38.732Z,1.30
2023-03-15T15:41:19.121Z,1.43
2023-03-15T15:43:46.869Z,1.30
2023-03-15T15:46:14.730Z,1.30
2023-03-15T15:48:42.366Z,1.27
2023-03-15T15:51:15.429Z,1.20
2023-03-15T15:53:43.009Z,1.13
2023-03-15T15:56:12.633Z,1.20
2023-03-15T15:58:44.051Z,1.57
2023-03-15T16:01:13.579Z,1.30
2023-03-15T16:03:41.719Z,1.50
2023-03-15T16:06:19.680Z,1.20
2023-03-15T16:08:48.032Z,1.40
2023-03-15T16:11:16.511Z,1.30
2023-03-15T16:13:45.370Z,1.30
2023-03-15T16:16:14.892Z,1.20
2023-03-15T16:18:43.567Z,1.13
2023-03-15T16:21:33.567Z,1.20
2023-03-15T16:24:06.369Z,1.00
2023-03-15T16:26:34.187Z,1.17
2023-03-15T16:29:02.404Z,1.03
2023-03-15T16:31:29.768Z,1.10
2023-03-15T16:33:57.475Z,1.00
2023-03-15T16:36:25.541Z,1.23
2023-03-15T16:38:52.924Z,1.13
2023-03-15T16:41:20.498Z,1.20
2023-03-15T16:43:49.435Z,1.40
2023-03-15T16:46:17.473Z,1.20
2023-03-15T16:48:45.150Z,1.40
2023-03-15T16:51:14.159Z,1.27
2023-03-15T16:53:44.760Z,1.30
2023-03-15T16:56:14.194Z,1.20
2023-03-15T16:58:43.987Z,1.33
2023-03-15T17:01:15.029Z,1.20
2023-03-15T17:03:47.530Z,1.20
2023-03-15T17:06:21.799Z,1.30
2023-03-15T17:09:01.072Z,1.10
2023-03-15T17:11:29.709Z,1.10
2023-03-15T17:14:00.398Z,1.17
2023-03-15T17:16:29.035Z,1.20
2023-03-15T17:18:56.474Z,1.10
2023-03-15T17:21:24.516Z,1.10
2023-03-15T17:23:53.190Z,1.57
2023-03-15T17:26:22.062Z,1.40
2023-03-15T17:28:50.054Z,1.23
2023-03-15T17:34:15.866Z,1.20
2023-03-15T17:36:43.558Z,1.00
2023-03-15T17:39:14.870Z,0.83
2023-03-15T17:41:44.930Z,0.80
2023-03-15T17:44:12.569Z,1.30
2023-03-15T17:46:41.320Z,1.10
2023-03-15T17:49:10.054Z,1.40
2023-03-15T17:51:38.090Z,0.97
2023-03-15T17:54:13.434Z,1.10
2023-03-15T17:56:41.310Z,0.93
2023-03-15T17:59:11.041Z,1.13
2023-03-15T18:01:39.337Z,1.17
2023-03-15T18:04:10.121Z,1.00
2023-03-15T18:06:37.623Z,1.40
2023-03-15T18:09:05.663Z,0.90
2023-03-15T18:11:35.780Z,1.20
2023-03-15T18:14:06.502Z,1.20
2023-03-15T18:16:33.895Z,1.13
2023-03-15T18:19:01.238Z,1.40
2023-03-15T18:21:28.676Z,1.50
2023-03-15T18:23:56.057Z,1.60
2023-03-15T18:26:23.532Z,1.10
2023-03-15T18:28:51.537Z,1.07
2023-03-15T18:31:23.683Z,1.30
2023-03-15T18:33:51.587Z,1.40
2023-03-15T18:36:20.112Z,1.27
2023-03-15T18:38:47.540Z,1.40
2023-03-15T18:41:20.687Z,1.30
2023-03-15T18:43:51.992Z,1.20
2023-03-15T18:46:20.337Z,1.47
2023-03-15T18:48:49.883Z,1.50
2023-03-15T18:51:17.623Z,1.40
2023-03-15T18:53:45.415Z,1.30
2023-03-15T18:56:17.367Z,1.50
2023-03-15T18:58:47.022Z,1.73
2023-03-15T19:01:14.692Z,1.70
2023-03-15T19:03:42.150Z,1.60
2023-03-15T19:06:11.796Z,1.80
2023-03-15T19:08:57.175Z,1.73
2023-03-15T19:11:26.780Z,1.90
2023-03-15T19:13:54.371Z,1.47
2023-03-15T19:16:22.242Z,2.07
2023-03-15T19:18:50.261Z,1.73
2023-03-15T19:21:18.936Z,1.67
2023-03-15T19:23:46.864Z,2.00
2023-03-15T19:26:14.418Z,1.80
2023-03-15T19:28:41.946Z,1.83
2023-03-15T19:31:09.598Z,2.23
2023-03-15T19:33:37.188Z,2.40
2023-03-15T19:36:04.881Z,2.00
2023-03-15T19:38:33.082Z,2.00
2023-03-15T19:41:04.931Z,1.90
2023-03-15T19:43:32.645Z,2.10
2023-03-15T19:46:01.475Z,2.33
2023-03-15T19:48:28.869Z,1.90
2023-03-15T19:50:56.357Z,1.90
2023-03-15T19:53:23.801Z,1.90
2023-03-15T19:55:51.247Z,2.10
2023-03-15T19:58:18.617Z,1.93
2023-03-15T20:00:45.954Z,2.83
2023-03-15T20:03:13.363Z,2.30
2023-03-15T20:05:40.690Z,2.20
2023-03-15T20:08:09.577Z,2.20
2023-03-15T20:10:37.202Z,2.60
2023-03-15T20:13:04.536Z,2.10
2023-03-15T20:15:32.289Z,2.20
2023-03-15T20:17:59.850Z,2.90
2023-03-15T20:20:27.241Z,2.50
2023-03-15T20:22:54.630Z,3.10
2023-03-15T20:25:22.391Z,2.60
2023-03-15T20:27:49.821Z,2.27
2023-03-15T20:30:17.789Z,2.57
2023-03-15T20:32:45.554Z,2.70
2023-03-15T20:35:13.164Z,2.07
2023-03-15T20:37:41.574Z,2.70
2023-03-15T20:40:13.386Z,2.10
2023-03-15T20:42:41.364Z,2.33
2023-03-15T20:45:09.756Z,2.17
2023-03-15T20:47:38.158Z,2.90
2023-03-15T20:50:07.328Z,2.53
2023-03-15T20:52:34.749Z,2.23
2023-03-15T20:55:03.625Z,2.70
2023-03-15T20:57:31.298Z,2.43
2023-03-15T20:59:58.976Z,2.40
2023-03-15T21:02:26.408Z,2.30
2023-03-15T21:04:53.772Z,2.50
2023-03-15T21:07:21.167Z,2.30
2023-03-15T21:09:48.602Z,3.03
2023-03-15T21:12:16.155Z,2.50
2023-03-15T21:14:45.316Z,2.60
2023-03-15T21:17:14.390Z,2.13
2023-03-15T21:19:42.018Z,2.70
2023-03-15T21:22:09.525Z,2.40
2023-03-15T21:24:49.443Z,2.47
2023-03-15T21:27:20.616Z,2.53
2023-03-15T21:29:47.927Z,2.63
2023-03-15T21:32:15.336Z,2.70
2023-03-15T21:34:42.848Z,2.97
2023-03-15T21:37:10.281Z,2.50
2023-03-15T21:39:38.415Z,3.07
2023-03-15T21:42:06.007Z,2.40
2023-03-15T21:44:39.757Z,2.70
2023-03-15T21:47:07.085Z,2.27
2023-03-15T21:49:34.803Z,2.57
2023-03-15T21:52:05.110Z,2.13
2023-03-15T21:54:32.509Z,2.30
2023-03-15T21:57:00.120Z,2.57
2023-03-15T21:59:28.192Z,2.60
2023-03-15T22:01:56.297Z,2.70
2023-03-15T22:04:25.296Z,2.87
2023-03-15T22:06:53.075Z,2.47
2023-03-15T22:09:21.245Z,2.30
2023-03-15T22:11:48.960Z,2.53
2023-03-15T22:14:16.406Z,2.70
2023-03-15T22:16:44.013Z,2.67
2023-03-15T22:19:11.670Z,2.50
2023-03-15T22:21:39.228Z,2.60
2023-03-15T22:24:06.968Z,2.23
2023-03-15T22:26:34.602Z,2.77
2023-03-15T22:29:02.164Z,2.37
2023-03-15T22:31:32.459Z,2.50
2023-03-15T22:34:00.033Z,2.83
2023-03-15T22:36:28.432Z,2.93
2023-03-15T22:38:56.056Z,2.70
2023-03-15T22:41:24.050Z,2.67
2023-03-15T22:43:52.723Z,2.93
2023-03-15T22:46:20.258Z,2.70
2023-03-15T22:48:47.823Z,2.97
2023-03-15T22:51:16.418Z,2.80
2023-03-15T22:53:44.398Z,2.23
2023-03-15T22:56:11.949Z,2.50
2023-03-15T22:58:39.425Z,2.70
2023-03-15T23:01:06.923Z,2.73
2023-03-15T23:03:34.575Z,2.50
2023-03-15T23:06:02.007Z,3.20
2023-03-15T23:08:29.476Z,3.00
2023-03-15T23:10:58.536Z,2.83
2023-03-15T23:13:26.254Z,3.13
2023-03-15T23:15:54.377Z,2.77
2023-03-15T23:18:22.357Z,2.97
2023-03-15T23:20:49.917Z,2.63
2023-03-15T23:23:17.510Z,2.70
2023-03-15T23:25:46.001Z,2.70
2023-03-15T23:28:17.127Z,2.87
2023-03-15T23:30:45.863Z,3.03
2023-03-15T23:33:13.566Z,2.73
2023-03-15T23:35:42.074Z,2.77
2023-03-15T23:38:09.630Z,2.50
2023-03-15T23:40:37.367Z,2.70
2023-03-15T23:43:05.945Z,3.07
2023-03-15T23:45:34.077Z,2.63
2023-03-15T23:48:02.607Z,3.30
2023-03-15T23:50:30.425Z,2.50
2023-03-15T23:52:58.493Z,2.70
2023-03-15T23:55:25.981Z,2.80
2023-03-15T23:57:53.534Z,2.57
